カラチ の空港の天気 - METARとTAF

ジンナー国際空港(カラチ) ( OPKC / KHI ) - パキスタン Karachi
飛行場実況気象(Metar)
観測時間10/22 16:25 PKT (10/22 11:25 UTC)
風向・風速南西 6m/s
視程7000m
天気現象
なし
気温34℃
湿度16%
気圧1006hPa
METAROPKC 221125Z 23011KT 7000 NSC 34/05 Q1006 NOSIG
過去の天気等 Google飛行場航空写真 Wunderground天気予報

過去48時間のMETAR

飛行場予報(TAF)
発表時間: 10/22 14:30 PKT (10/22 09:30 UTC)
予報対象時間: 22日17時 PKT ~ 23日23時 PKT
風向・風速西 4m/s 瞬間風速 9m/s
視程5000m
天気現象煙霧
なし
22日23時 PKT から
風向・風速北東 5m/s
視程5000m
天気現象煙霧
なし
23日5時 PKT ~ 23日9時 PKT に一時的に
風向・風速北北東 4m/s
視程3000m
天気現象煙霧
なし
23日9時 PKT から
風向・風速西南西 4m/s 瞬間風速 9m/s
視程5000m
天気現象煙霧
なし
TAF OPKC 220930Z 2212/2318 26007G17KT 5000 HZ NSC
FM221800 05010KT 5000 HZ NSC
TEMPO 2300/2304 02007KT 3000 HZ NSC
FM230400 25007G17KT 5000 HZ NSC